Gorno-Altaysk, Russia
Current Conditions -  °F | °C
As of 8:00 PM on Thursday 27 Nov 2014 (Local Time) from UNBB Reporting Station
Light Snow Light Snow  
Wind Chill: -2°   Ceiling: 300
Heat Index: 14°   Visibility: 5mi
Dew Point: 10°   Wind: 16mph
Humidity: 86%   Direction: 270°W
Pressure: 29.8"   Gusts: NA
Location:  51.96°N, 85.96°E
Report Text: UNBB 271300Z 27007MPS 8000 -SN DRSN BKN003 M10/M12 Q1009 NOSIGRMK QBB100 QFE734/0979 24401545
Loading
Personal Weather Stations






























Interactive Weather Map New forecast layout! Learn more

10-Day Weather Forecast

Advertisements
Track Severe Weather on mobile